Time;durP1;ratioP1;P1;durP2;ratioP2;P2;SDS_P1;SDS_P2;PMS_P1;PMS_P2;Temp;Humidity;BMP_temperature;BMP_pressure;BME280_temperature;BME280_humidity;BME280_pressure;Samples;Min_cycle;Max_cycle;Signal;HPM_P1;HPM_P2
2022/04/14 00:00:59;;;;;;;12.75;6.83;;;;;;;3.22;51.70;98259.08;1641978;86;21537;-72
2022/04/14 00:03:26;;;;;;;10.55;6.03;;;;;;;3.14;54.33;98249.89;1659714;86;21095;-72
2022/04/14 00:05:54;;;;;;;10.35;6.08;;;;;;;3.12;53.50;98254.22;1613284;89;21078;-72
2022/04/14 00:08:21;;;;;;;12.10;6.40;;;;;;;3.10;53.33;98257.70;1615880;89;21040;-73
2022/04/14 00:10:48;;;;;;;10.23;6.30;;;;;;;3.13;52.88;98257.73;1660258;86;21040;-72
2022/04/14 00:13:16;;;;;;;13.03;6.72;;;;;;;3.11;54.20;98247.70;1616507;89;21088;-72
2022/04/14 00:15:43;;;;;;;9.98;6.35;;;;;;;3.09;52.92;98253.34;1660031;86;21438;-73
2022/04/14 00:18:10;;;;;;;13.00;6.42;;;;;;;3.05;54.05;98255.08;1656126;86;21053;-72
2022/04/14 00:20:37;;;;;;;12.00;6.35;;;;;;;3.03;53.37;98248.94;1654212;86;21002;-72
2022/04/14 00:23:04;;;;;;;13.62;6.78;;;;;;;3.01;53.46;98248.07;1654289;87;21087;-72
2022/04/14 00:25:31;;;;;;;11.38;6.05;;;;;;;2.99;52.71;98243.27;1654314;87;20997;-73
2022/04/14 00:27:57;;;;;;;10.50;6.42;;;;;;;2.95;55.15;98244.98;1654246;86;21052;-73
2022/04/14 00:30:25;;;;;;;11.05;5.72;;;;;;;2.93;53.34;98236.67;1659204;86;21056;-72
2022/04/14 00:32:52;;;;;;;12.07;6.08;;;;;;;2.89;52.82;98238.41;1659991;86;21068;-72
2022/04/14 00:35:19;;;;;;;7.60;5.25;;;;;;;2.86;52.70;98239.72;1659625;86;21772;-72
2022/04/14 00:37:46;;;;;;;14.87;6.15;;;;;;;2.83;52.97;98237.93;1660203;86;21071;-73
2022/04/14 00:40:13;;;;;;;9.70;5.45;;;;;;;2.84;53.16;98234.89;1659846;86;21482;-73
2022/04/14 00:42:39;;;;;;;12.33;6.25;;;;;;;2.85;52.85;98242.76;1613194;89;21057;-73
2022/04/14 00:45:09;;;;;;;11.25;6.28;;;;;;;2.84;53.08;98238.39;1613052;89;21455;-72
2022/04/14 00:47:37;;;;;;;11.57;5.67;;;;;;;2.83;53.51;98241.00;1612622;89;21081;-72
2022/04/14 00:50:05;;;;;;;10.38;5.97;;;;;;;2.79;53.94;98237.50;1612579;89;21025;-73
2022/04/14 00:52:32;;;;;;;11.95;5.25;;;;;;;2.76;54.28;98233.55;1612986;89;21085;-73
2022/04/14 00:55:00;;;;;;;11.53;5.65;;;;;;;2.76;53.85;98226.58;1596196;89;21162;-73
2022/04/14 00:57:26;;;;;;;10.63;6.15;;;;;;;2.76;54.47;98230.50;1659931;86;21207;-73
2022/04/14 00:59:53;;;;;;;11.65;5.87;;;;;;;2.74;54.02;98218.28;1610347;88;21071;-73
2022/04/14 01:02:20;;;;;;;9.65;6.03;;;;;;;2.73;53.72;98214.77;1593098;89;21515;-73
2022/04/14 01:04:49;;;;;;;11.40;5.67;;;;;;;2.71;53.65;98227.41;1606127;89;21099;-72
2022/04/14 01:07:16;;;;;;;10.60;5.42;;;;;;;2.69;53.76;98222.61;1604674;89;21081;-72
2022/04/14 01:09:45;;;;;;;10.58;5.97;;;;;;;2.66;54.33;98223.47;1644140;86;21045;-72
2022/04/14 01:12:16;;;;;;;10.55;5.67;;;;;;;2.66;54.36;98211.70;1653186;87;21048;-73
2022/04/14 01:14:43;;;;;;;8.65;5.45;;;;;;;2.64;54.14;98218.64;1626683;87;21021;-73
2022/04/14 01:17:11;;;;;;;13.43;5.50;;;;;;;2.64;55.27;98226.49;1658901;86;21056;-72
2022/04/14 01:19:39;;;;;;;10.70;5.67;;;;;;;2.58;55.61;98223.84;1656838;86;21017;-73
2022/04/14 01:22:26;;;;;;;10.65;5.17;;;;;;;2.52;55.24;98219.89;1651713;86;21072;-73
2022/04/14 01:24:57;;;;;;;8.40;4.92;;;;;;;2.49;55.56;98220.30;1658699;86;21036;-73
2022/04/14 01:27:28;;;;;;;8.13;4.92;;;;;;;2.47;55.01;98219.42;1632591;88;21036;-72
2022/04/14 01:29:55;;;;;;;9.25;4.97;;;;;;;2.48;54.59;98223.78;1656724;86;21017;-72
2022/04/14 01:32:23;;;;;;;11.12;5.72;;;;;;;2.49;55.28;98216.83;1659261;86;21076;-72
2022/04/14 01:34:51;;;;;;;10.38;5.55;;;;;;;2.46;55.12;98211.11;1659392;86;21068;-72
2022/04/14 01:37:18;;;;;;;13.28;4.80;;;;;;;2.42;54.75;98208.47;1654116;86;21041;-72
2022/04/14 01:39:45;;;;;;;10.75;5.20;;;;;;;2.43;54.45;98211.11;1644828;87;21005;-72
2022/04/14 01:42:12;;;;;;;12.25;5.20;;;;;;;2.39;55.75;98206.72;1654028;87;21037;-72
2022/04/14 01:44:41;;;;;;;10.05;4.45;;;;;;;2.33;56.08;98210.61;1629654;87;21041;-72
2022/04/14 01:47:09;;;;;;;10.95;4.87;;;;;;;2.29;56.39;98211.02;1658879;86;21053;-72
2022/04/14 01:49:35;;;;;;;7.42;4.33;;;;;;;2.24;55.90;98203.55;1658943;86;21063;-72
2022/04/14 01:52:03;;;;;;;8.30;4.50;;;;;;;2.26;55.44;98210.98;1659215;86;21029;-73
2022/04/14 01:54:29;;;;;;;8.45;4.75;;;;;;;2.24;55.97;98216.20;1656697;86;21069;-72
2022/04/14 01:56:57;;;;;;;8.58;5.20;;;;;;;2.29;55.55;98212.75;1644653;87;21470;-72
2022/04/14 01:59:23;;;;;;;8.90;5.00;;;;;;;2.28;55.51;98218.40;1657211;85;21151;-72
2022/04/14 02:01:50;;;;;;;8.30;4.83;;;;;;;2.22;55.30;98224.48;1666308;86;21080;-73
2022/04/14 02:04:17;;;;;;;8.90;5.08;;;;;;;2.22;55.22;98227.09;1666395;86;21001;-72
2022/04/14 02:06:44;;;;;;;8.58;4.62;;;;;;;2.19;55.30;98227.06;1668009;86;21096;-73
2022/04/14 02:09:12;;;;;;;9.95;4.30;;;;;;;2.17;55.47;98234.03;1669333;86;20976;-73
2022/04/14 02:11:39;;;;;;;9.73;4.75;;;;;;;2.13;55.44;98232.25;1669298;86;21470;-73
2022/04/14 02:14:07;;;;;;;9.60;4.40;;;;;;;2.06;55.38;98230.02;1668562;86;21055;-72
2022/04/14 02:16:33;;;;;;;8.35;4.67;;;;;;;2.03;57.12;98233.04;1666052;86;21191;-72
2022/04/14 02:19:00;;;;;;;9.10;4.80;;;;;;;2.04;56.20;98242.63;1666579;86;21449;-73
2022/04/14 02:21:27;;;;;;;9.68;4.67;;;;;;;1.96;55.86;98240.80;1665852;86;21048;-72
2022/04/14 02:23:54;;;;;;;9.48;5.28;;;;;;;1.91;55.92;98237.27;1666353;86;21233;-72
2022/04/14 02:26:21;;;;;;;8.13;4.83;;;;;;;1.88;56.39;98242.49;1669234;86;21060;-71
2022/04/14 02:28:47;;;;;;;8.33;4.30;;;;;;;1.87;57.64;98242.02;1669359;86;20971;-73
2022/04/14 02:31:14;;;;;;;9.48;4.42;;;;;;;1.87;56.50;98240.72;1669323;85;21111;-72
2022/04/14 02:33:41;;;;;;;11.68;5.00;;;;;;;1.90;58.14;98245.09;1669410;85;21019;-73
2022/04/14 02:36:08;;;;;;;10.25;5.50;;;;;;;1.90;56.90;98239.87;1669562;86;20992;-72
2022/04/14 02:38:35;;;;;;;9.70;4.70;;;;;;;1.89;57.18;98239.02;1669904;86;20997;-72
2022/04/14 02:41:02;;;;;;;8.20;5.10;;;;;;;1.87;57.32;98238.10;1669505;86;21469;-72
2022/04/14 02:43:28;;;;;;;8.83;4.15;;;;;;;1.83;57.62;98249.42;1669563;86;21076;-72
2022/04/14 02:45:55;;;;;;;8.28;4.45;;;;;;;1.79;58.84;98254.16;1669025;86;21695;-72
2022/04/14 02:48:22;;;;;;;7.62;4.20;;;;;;;1.77;58.42;98251.53;1668295;86;21083;-72
2022/04/14 02:50:48;;;;;;;8.50;4.37;;;;;;;1.77;57.89;98254.56;1655058;86;21489;-72
2022/04/14 02:53:15;;;;;;;11.65;5.20;;;;;;;1.79;57.49;98260.25;1652345;86;21036;-72
2022/04/14 02:55:41;;;;;;;8.75;4.72;;;;;;;1.80;57.58;98250.68;1608517;88;21071;-72
2022/04/14 02:58:08;;;;;;;10.18;4.95;;;;;;;1.79;57.94;98253.71;1642484;87;21020;-72
2022/04/14 03:00:34;;;;;;;14.58;5.33;;;;;;;1.75;57.81;98255.87;1645351;86;21016;-73
2022/04/14 03:03:01;;;;;;;11.73;4.95;;;;;;;1.74;58.43;98250.18;1650110;85;21512;-73
2022/04/14 03:05:28;;;;;;;8.43;4.95;;;;;;;1.73;57.58;98249.74;1663833;86;21055;-72
2022/04/14 03:07:54;;;;;;;12.55;5.30;;;;;;;1.71;58.19;98251.03;1671707;86;21004;-73
2022/04/14 03:10:21;;;;;;;8.55;4.45;;;;;;;1.73;57.50;98250.19;1662368;86;21096;-72
2022/04/14 03:12:49;;;;;;;7.47;4.50;;;;;;;1.72;57.68;98261.06;1659952;85;21009;-72
2022/04/14 03:15:17;;;;;;;8.03;4.75;;;;;;;1.74;57.50;98252.80;1648939;85;21032;-73
2022/04/14 03:17:44;;;;;;;8.75;5.05;;;;;;;1.76;57.38;98244.55;1657038;86;21028;-72
2022/04/14 03:20:12;;;;;;;13.88;5.40;;;;;;;1.76;57.59;98239.33;1662024;86;21093;-73
2022/04/14 03:22:38;;;;;;;15.72;5.10;;;;;;;1.77;58.29;98236.27;1671846;86;21461;-72
2022/04/14 03:25:11;;;;;;;8.13;5.03;;;;;;;1.77;58.20;98231.93;1660289;86;21052;-72
2022/04/14 03:27:37;;;;;;;9.23;4.53;;;;;;;1.75;57.58;98230.16;1659100;86;20977;-71
2022/04/14 03:30:06;;;;;;;10.48;5.50;;;;;;;1.71;57.46;98240.58;1661468;85;20978;-71
2022/04/14 03:32:41;;;;;;;9.30;5.05;;;;;;;1.68;57.29;98235.75;1671703;86;21458;-72
2022/04/14 03:35:09;;;;;;;10.68;4.62;;;;;;;1.66;57.53;98240.10;1661937;86;21115;-72
2022/04/14 03:37:36;;;;;;;11.85;4.55;;;;;;;1.66;57.91;98229.20;1659484;86;21438;-72
2022/04/14 03:40:04;;;;;;;7.92;4.25;;;;;;;1.67;57.78;98233.56;1658958;86;21001;-71
2022/04/14 03:42:31;;;;;;;8.88;4.65;;;;;;;1.68;57.56;98233.14;1658685;86;21048;-71
2022/04/14 03:44:58;;;;;;;9.45;5.20;;;;;;;1.68;57.51;98239.26;1660201;86;21088;-71
2022/04/14 03:47:26;;;;;;;10.00;4.42;;;;;;;1.70;57.52;98247.98;1671553;86;21537;-71
2022/04/14 03:49:52;;;;;;;13.40;5.30;;;;;;;1.66;57.54;98240.10;1661834;86;21072;-71
2022/04/14 03:52:19;;;;;;;10.78;5.25;;;;;;;1.64;57.45;98232.24;1662452;86;21040;-72
2022/04/14 03:54:46;;;;;;;10.23;5.30;;;;;;;1.63;57.65;98237.03;1661462;86;20989;-72
2022/04/14 03:57:12;;;;;;;11.75;5.15;;;;;;;1.61;57.97;98235.27;1658412;86;21076;-71
2022/04/14 03:59:39;;;;;;;11.53;4.95;;;;;;;1.58;57.80;98235.66;1658984;85;21032;-72
2022/04/14 04:02:06;;;;;;;9.10;5.15;;;;;;;1.55;58.45;98231.73;1658687;86;21478;-71
2022/04/14 04:04:33;;;;;;;11.05;5.10;;;;;;;1.53;58.66;98233.43;1658746;86;20997;-71
2022/04/14 04:07:00;;;;;;;10.63;5.20;;;;;;;1.49;60.33;98234.25;1660387;86;21505;-71
2022/04/14 04:09:27;;;;;;;10.55;5.60;;;;;;;1.43;61.05;98234.20;1671367;86;21083;-72
2022/04/14 04:11:54;;;;;;;10.43;5.17;;;;;;;1.42;59.32;98223.30;1652253;86;21238;-72
2022/04/14 04:14:21;;;;;;;10.70;6.03;;;;;;;1.41;59.47;98231.56;1639332;87;21046;-71
2022/04/14 04:16:48;;;;;;;9.03;4.80;;;;;;;1.43;59.88;98228.97;1630467;88;21055;-71
2022/04/14 04:19:14;;;;;;;12.43;5.53;;;;;;;1.41;60.25;98232.86;1627909;88;21078;-72
2022/04/14 04:21:41;;;;;;;12.23;5.78;;;;;;;1.43;59.86;98237.70;1600475;90;21049;-72
2022/04/14 04:24:09;;;;;;;11.75;5.92;;;;;;;1.49;59.25;98245.15;1627453;88;21055;-73
2022/04/14 04:26:35;;;;;;;9.70;5.87;;;;;;;1.53;59.03;98244.33;1603901;89;21087;-72
2022/04/14 04:29:02;;;;;;;12.82;5.17;;;;;;;1.57;58.91;98243.05;1616679;88;21529;-72
2022/04/14 04:31:28;;;;;;;15.88;5.90;;;;;;;1.65;58.83;98253.58;1600883;90;21025;-72
2022/04/14 04:33:55;;;;;;;7.87;4.95;;;;;;;1.68;59.62;98250.13;1568259;91;21072;-72
2022/04/14 04:36:22;;;;;;;10.18;4.62;;;;;;;1.70;59.85;98245.78;1583345;91;21128;-72
2022/04/14 04:38:50;;;;;;;10.05;5.25;;;;;;;1.78;59.00;98251.97;1582717;89;31757;-72
2022/04/14 04:41:16;;;;;;;10.48;4.75;;;;;;;1.86;58.93;98243.34;1592120;90;21092;-72
2022/04/14 04:43:43;;;;;;;11.15;5.72;;;;;;;1.93;59.00;98253.86;1600963;88;21530;-72
2022/04/14 04:46:09;;;;;;;8.30;4.95;;;;;;;1.95;58.92;98256.50;1610273;89;21072;-72
2022/04/14 04:48:37;;;;;;;12.18;5.92;;;;;;;1.96;58.37;98259.10;1600972;89;21076;-72
2022/04/14 04:51:03;;;;;;;11.20;5.80;;;;;;;2.08;58.91;98258.80;1587134;90;21533;-72
2022/04/14 04:53:30;;;;;;;14.33;5.95;;;;;;;2.20;58.25;98250.17;1587523;90;21030;-73
2022/04/14 04:55:56;;;;;;;11.63;6.35;;;;;;;2.29;58.02;98251.98;1605374;89;21096;-71
2022/04/14 04:58:23;;;;;;;10.85;5.58;;;;;;;2.27;58.65;98252.38;1590946;89;21084;-73
2022/04/14 05:00:49;;;;;;;11.10;6.33;;;;;;;2.27;58.05;98249.77;1612554;88;21048;-71
2022/04/14 05:03:17;;;;;;;11.25;5.58;;;;;;;2.30;58.45;98253.72;1634644;88;21047;-72
2022/04/14 05:05:43;;;;;;;9.33;5.58;;;;;;;2.32;58.26;98257.25;1635028;87;21102;-72
2022/04/14 05:08:10;;;;;;;11.97;5.58;;;;;;;2.36;58.22;98241.58;1630669;87;21066;-72
2022/04/14 05:10:37;;;;;;;13.35;5.45;;;;;;;2.43;58.12;98235.95;1649447;87;21092;-72
2022/04/14 05:13:04;;;;;;;11.73;5.85;;;;;;;2.48;58.27;98238.17;1650027;87;21097;-72
2022/04/14 05:15:31;;;;;;;12.47;6.50;;;;;;;2.53;58.02;98238.64;1650229;87;21030;-72
2022/04/14 05:17:57;;;;;;;15.65;7.08;;;;;;;2.59;57.96;98247.83;1627686;87;21120;-72
2022/04/14 05:20:24;;;;;;;14.93;7.40;;;;;;;2.61;58.23;98239.55;1655934;86;21074;-72
2022/04/14 05:22:50;;;;;;;19.37;7.53;;;;;;;2.65;58.03;98240.02;1605356;88;21074;-72
2022/04/14 05:25:17;;;;;;;14.53;7.58;;;;;;;2.73;57.79;98238.75;1635535;88;21146;-72
2022/04/14 05:27:44;;;;;;;16.90;8.18;;;;;;;2.77;57.92;98229.63;1654133;87;21026;-72
2022/04/14 05:30:11;;;;;;;15.23;7.80;;;;;;;2.84;57.72;98236.20;1650410;86;21061;-72
2022/04/14 05:32:40;;;;;;;19.00;9.13;;;;;;;2.91;57.85;98241.92;1635641;88;21059;-72
2022/04/14 05:35:08;;;;;;;23.47;8.63;;;;;;;2.97;57.90;98233.20;1655971;87;21448;-72
2022/04/14 05:37:36;;;;;;;13.68;7.78;;;;;;;3.06;57.63;98234.56;1635893;88;21062;-72
2022/04/14 05:40:06;;;;;;;20.85;8.90;;;;;;;3.14;57.28;98243.34;1656419;87;21074;-72
2022/04/14 05:42:32;;;;;;;18.35;8.38;;;;;;;3.22;57.22;98244.67;1653147;87;20996;-72
2022/04/14 05:44:59;;;;;;;12.65;7.62;;;;;;;3.30;57.45;98246.02;1656014;86;21049;-72
2022/04/14 05:47:26;;;;;;;14.60;8.03;;;;;;;3.39;57.27;98245.16;1635752;88;21050;-72
2022/04/14 05:49:54;;;;;;;13.55;7.47;;;;;;;3.49;57.06;98256.56;1635851;88;21123;-72
2022/04/14 05:52:21;;;;;;;19.77;8.80;;;;;;;3.58;56.96;98246.11;1632575;87;21448;-72
2022/04/14 05:54:48;;;;;;;16.45;8.13;;;;;;;3.67;56.89;98253.11;1635322;88;21477;-72
2022/04/14 05:57:16;;;;;;;20.17;7.80;;;;;;;3.77;57.20;98250.06;1614652;88;21143;-71
2022/04/14 05:59:43;;;;;;;16.75;8.48;;;;;;;3.88;56.83;98253.59;1616884;88;21349;-72
2022/04/14 06:02:09;;;;;;;15.83;8.08;;;;;;;3.98;56.69;98253.16;1624435;88;21056;-72
2022/04/14 06:04:36;;;;;;;21.02;8.28;;;;;;;4.07;56.64;98251.86;1608607;89;21469;-72
2022/04/14 06:07:05;;;;;;;17.55;8.05;;;;;;;4.18;56.63;98254.50;1614752;89;21024;-73
2022/04/14 06:09:31;;;;;;;16.40;7.90;;;;;;;4.28;56.60;98256.67;1614655;89;21494;-73
2022/04/14 06:11:58;;;;;;;14.83;7.33;;;;;;;4.39;56.55;98254.52;1614258;89;21028;-72
2022/04/14 06:14:25;;;;;;;15.53;7.50;;;;;;;4.48;56.28;98249.23;1614658;89;21356;-72
2022/04/14 06:16:52;;;;;;;19.17;11.45;;;;;;;4.59;56.11;98255.78;1604989;89;21465;-72
2022/04/14 06:19:19;;;;;;;17.62;8.30;;;;;;;4.72;56.08;98250.07;1600903;88;21075;-72
2022/04/14 06:21:45;;;;;;;16.15;9.30;;;;;;;4.84;55.95;98250.06;1620101;88;21081;-72
2022/04/14 06:24:12;;;;;;;15.68;7.87;;;;;;;4.97;55.87;98247.39;1614783;89;21434;-72
2022/04/14 06:26:39;;;;;;;16.30;7.83;;;;;;;5.10;55.82;98250.84;1614780;89;21052;-72
2022/04/14 06:29:06;;;;;;;15.28;8.13;;;;;;;5.21;55.60;98247.77;1603116;89;21039;-72
2022/04/14 06:31:33;;;;;;;15.43;8.23;;;;;;;5.34;55.38;98249.89;1622034;88;21110;-72
2022/04/14 06:33:59;;;;;;;15.20;8.05;;;;;;;5.46;55.26;98247.66;1614729;89;21033;-72
2022/04/14 06:36:26;;;;;;;19.32;7.87;;;;;;;5.58;55.09;98239.26;1609151;89;21074;-72
2022/04/14 06:38:52;;;;;;;14.35;7.50;;;;;;;5.74;54.77;98247.94;1627343;88;21126;-72
2022/04/14 06:41:18;;;;;;;12.63;7.50;;;;;;;5.87;54.60;98246.99;1601991;89;21059;-73
2022/04/14 06:43:49;;;;;;;11.78;7.08;;;;;;;6.03;54.23;98241.66;1614519;89;21099;-72
2022/04/14 06:46:17;;;;;;;14.93;6.70;;;;;;;6.15;54.01;98246.80;1610328;89;21516;-72
2022/04/14 06:48:44;;;;;;;9.35;6.37;;;;;;;6.29;53.73;98239.25;1627479;88;21428;-72
2022/04/14 06:51:11;;;;;;;8.48;4.95;;;;;;;6.43;53.19;98234.74;1600994;89;21047;-72
2022/04/14 06:53:38;;;;;;;12.07;4.80;;;;;;;6.60;52.54;98230.64;1627401;88;21015;-72
2022/04/14 06:56:05;;;;;;;7.33;5.25;;;;;;;6.79;52.19;98237.47;1600829;89;21120;-72
2022/04/14 06:58:32;;;;;;;10.68;5.25;;;;;;;6.94;51.93;98241.25;1614975;88;21042;-72
2022/04/14 07:00:58;;;;;;;11.12;4.58;;;;;;;7.09;51.64;98238.91;1614542;89;21037;-71
2022/04/14 07:03:26;;;;;;;7.25;4.50;;;;;;;7.26;50.94;98241.34;1627875;88;21028;-72
2022/04/14 07:05:56;;;;;;;13.18;5.70;;;;;;;7.40;50.67;98241.63;1655827;87;22078;-72
2022/04/14 07:08:26;;;;;;;10.08;5.40;;;;;;;7.57;50.00;98246.68;1634365;88;21015;-72
2022/04/14 07:10:57;;;;;;;10.78;5.95;;;;;;;7.72;48.99;98246.90;1654150;87;21006;-72
2022/04/14 07:13:23;;;;;;;10.25;6.33;;;;;;;7.88;47.45;98243.60;1633948;88;20976;-73
2022/04/14 07:15:50;;;;;;;29.82;16.90;;;;;;;8.05;47.59;98241.14;1633741;88;20999;-72
2022/04/14 07:18:17;;;;;;;33.05;15.08;;;;;;;8.17;48.02;98242.72;1655795;86;21054;-71
2022/04/14 07:20:46;;;;;;;16.37;8.85;;;;;;;8.27;48.20;98245.64;1655490;86;21436;-71
2022/04/14 07:23:13;;;;;;;14.87;8.18;;;;;;;8.40;47.46;98245.02;1630087;88;21425;-72
2022/04/14 07:25:39;;;;;;;17.55;7.17;;;;;;;8.52;48.15;98245.26;1654895;86;21114;-71
2022/04/14 07:28:07;;;;;;;11.38;6.78;;;;;;;8.67;47.39;98239.28;1654848;86;21053;-72
2022/04/14 07:30:34;;;;;;;10.53;6.75;;;;;;;8.78;46.30;98243.95;1655358;87;22137;-72
2022/04/14 07:33:00;;;;;;;18.42;7.35;;;;;;;8.91;46.94;98247.66;1656429;87;21047;-73
2022/04/14 07:35:28;;;;;;;12.20;6.85;;;;;;;8.96;46.53;98248.02;1656376;87;20975;-72
2022/04/14 07:37:54;;;;;;;14.78;7.03;;;;;;;9.05;47.05;98252.71;1656367;87;21007;-72
2022/04/14 07:40:21;;;;;;;9.88;5.90;;;;;;;9.12;46.46;98242.42;1656503;87;21070;-73
2022/04/14 07:42:49;;;;;;;16.27;6.55;;;;;;;9.23;46.37;98240.42;1656538;87;21070;-73
2022/04/14 07:45:16;;;;;;;10.28;5.17;;;;;;;9.35;46.23;98247.71;1656633;87;21067;-73
2022/04/14 07:47:45;;;;;;;13.62;6.03;;;;;;;9.43;45.58;98243.58;1654501;86;21037;-74
2022/04/14 07:50:15;;;;;;;11.03;5.67;;;;;;;9.52;45.56;98243.39;1653546;87;21062;-74
2022/04/14 07:52:59;;;;;;;11.10;4.97;;;;;;;9.63;44.00;98241.37;1653696;87;21427;-77
2022/04/14 07:55:31;;;;;;;9.53;4.50;;;;;;;9.75;44.70;98242.88;1653394;87;21038;-75
2022/04/14 07:58:10;;;;;;;11.33;5.35;;;;;;;9.85;44.72;98244.00;1654581;87;21029;-77
2022/04/14 08:00:36;;;;;;;12.82;5.80;;;;;;;9.92;44.75;98239.45;1653481;87;21010;-79
2022/04/14 08:03:04;;;;;;;11.73;5.37;;;;;;;9.93;42.46;98240.73;1648461;87;21449;-76
2022/04/14 08:05:41;;;;;;;16.17;6.42;;;;;;;9.96;43.26;98233.17;1632256;88;21073;-73
2022/04/14 08:08:18;;;;;;;12.30;5.55;;;;;;;10.02;42.48;98240.50;1625892;88;21526;-73
2022/04/14 08:10:47;;;;;;;11.48;6.25;;;;;;;10.17;42.33;98243.25;1625477;88;21471;-72
2022/04/14 08:13:15;;;;;;;10.18;4.92;;;;;;;10.26;42.76;98241.30;1625552;88;21050;-72
2022/04/14 08:15:42;;;;;;;9.40;4.30;;;;;;;10.37;41.47;98248.52;1625806;88;21033;-73
2022/04/14 08:18:09;;;;;;;9.10;4.75;;;;;;;10.50;40.75;98233.69;1632548;88;21039;-73
2022/04/14 08:20:42;;;;;;;10.30;4.30;;;;;;;10.63;41.61;98236.88;1593350;90;21040;-73
2022/04/14 08:23:14;;;;;;;7.30;3.87;;;;;;;10.69;41.29;98234.95;1612966;88;21023;-73
2022/04/14 08:25:42;;;;;;;5.42;4.00;;;;;;;10.78;41.39;98235.59;1637680;88;21051;-73
2022/04/14 08:28:08;;;;;;;7.83;4.05;;;;;;;10.82;40.64;98227.98;1637939;88;20991;-73
2022/04/14 08:30:36;;;;;;;11.55;4.72;;;;;;;10.87;40.20;98234.03;1593139;90;21074;-73
2022/04/14 08:33:07;;;;;;;9.18;4.47;;;;;;;10.93;40.55;98233.84;1593167;90;21454;-73
2022/04/14 08:35:36;;;;;;;8.68;4.03;;;;;;;10.96;38.45;98223.17;1619229;89;21479;-73
2022/04/14 08:38:06;;;;;;;8.53;4.60;;;;;;;11.11;39.28;98228.96;1612452;88;21041;-73
2022/04/14 08:40:38;;;;;;;11.22;4.70;;;;;;;11.29;40.05;98232.02;1637885;88;21063;-73
2022/04/14 08:43:09;;;;;;;11.43;5.25;;;;;;;11.36;39.09;98226.94;1593566;90;21060;-73
2022/04/14 08:45:48;;;;;;;16.42;6.05;;;;;;;11.51;39.43;98223.42;1629367;88;21451;-73
2022/04/14 08:48:18;;;;;;;38.13;6.20;;;;;;;11.68;39.67;98225.56;1625873;88;21434;-73
2022/04/14 08:50:46;;;;;;;17.82;5.00;;;;;;;11.80;39.92;98220.34;1625883;88;21074;-73
2022/04/14 08:53:14;;;;;;;16.17;4.87;;;;;;;11.86;38.29;98210.40;1625791;88;21054;-74
2022/04/14 08:55:42;;;;;;;10.75;4.90;;;;;;;11.97;39.15;98216.71;1634206;88;21055;-74
2022/04/14 08:58:15;;;;;;;7.47;4.10;;;;;;;12.04;37.97;98218.69;1593418;90;21489;-73
2022/04/14 09:00:43;;;;;;;11.28;4.10;;;;;;;12.12;38.48;98209.17;1637872;88;21083;-73
2022/04/14 09:03:13;;;;;;;61.65;11.45;;;;;;;12.19;37.83;98209.84;1590251;90;21080;-73
2022/04/14 09:05:39;;;;;;;13.48;4.92;;;;;;;12.28;38.12;98210.42;1584012;91;21462;-74
2022/04/14 09:08:07;;;;;;;26.70;8.83;;;;;;;12.43;37.71;98200.20;1583649;91;21047;-73
2022/04/14 09:10:36;;;;;;;11.15;4.10;;;;;;;12.52;36.42;98200.34;1583473;91;21079;-73
2022/04/14 09:13:04;;;;;;;11.60;4.83;;;;;;;12.65;35.10;98200.33;1583412;91;21028;-73
2022/04/14 09:15:31;;;;;;;8.10;3.67;;;;;;;12.74;35.42;98202.27;1583401;91;21110;-73
2022/04/14 09:17:58;;;;;;;6.40;3.58;;;;;;;12.87;34.39;98198.23;1583803;91;21024;-73
2022/04/14 09:20:37;;;;;;;9.63;3.67;;;;;;;13.09;33.39;98203.25;1584078;91;21049;-73
2022/04/14 09:23:21;;;;;;;6.50;3.70;;;;;;;13.24;32.87;98193.36;1584046;91;21076;-73
2022/04/14 09:26:01;;;;;;;8.07;3.47;;;;;;;13.38;32.30;98193.31;1563371;91;21021;-73
2022/04/14 09:28:29;;;;;;;24.27;5.03;;;;;;;13.47;33.40;98191.67;1583134;91;21084;-73
2022/04/14 09:31:11;;;;;;;6.25;3.50;;;;;;;13.61;33.18;98188.46;1583369;91;21067;-73
2022/04/14 09:33:48;;;;;;;31.55;4.25;;;;;;;13.70;33.08;98193.91;1583313;91;21505;-73
2022/04/14 09:36:20;;;;;;;97.05;8.80;;;;;;;13.78;31.44;98180.30;1583449;91;21043;-73
2022/04/14 09:39:06;;;;;;;10.55;3.67;;;;;;;13.90;31.89;98174.94;1583530;91;21104;-73
2022/04/14 09:41:42;;;;;;;9.05;3.70;;;;;;;14.11;31.63;98179.38;1583713;91;21040;-73
2022/04/14 09:44:14;;;;;;;7.60;3.40;;;;;;;14.29;32.24;98167.56;1584077;91;21056;-73
2022/04/14 09:46:48;;;;;;;9.98;5.12;;;;;;;14.42;31.21;98169.24;1584115;91;21520;-73
2022/04/14 09:49:17;;;;;;;13.25;4.50;;;;;;;14.63;30.64;98171.91;1583881;91;21446;-73
2022/04/14 09:51:48;;;;;;;11.60;3.95;;;;;;;14.84;30.40;98174.60;1583386;91;21055;-73
2022/04/14 09:54:21;;;;;;;12.70;4.30;;;;;;;15.09;31.83;98170.83;1583365;91;21102;-73
2022/04/14 09:56:51;;;;;;;7.00;3.60;;;;;;;15.33;31.70;98171.53;1583461;91;21079;-73
2022/04/14 09:59:25;;;;;;;12.30;4.17;;;;;;;15.60;29.73;98169.83;1584105;91;21041;-73
2022/04/14 10:02:16;;;;;;;5.87;3.80;;;;;;;15.81;30.71;98171.06;1583874;91;21064;-74
2022/04/14 10:04:47;;;;;;;16.40;6.95;;;;;;;15.98;29.35;98164.09;1584002;91;21201;-73
2022/04/14 10:07:16;;;;;;;60.30;30.27;;;;;;;16.23;30.55;98163.72;1631488;88;21667;-73
2022/04/14 10:09:48;;;;;;;12.93;4.85;;;;;;;16.43;30.13;98154.70;1618884;89;21022;-73
2022/04/14 10:12:26;;;;;;;7.20;3.70;;;;;;;16.63;28.50;98155.02;1618853;88;21512;-73
2022/04/14 10:15:05;;;;;;;6.47;3.30;;;;;;;16.83;29.34;98152.23;1608992;88;21024;-73
2022/04/14 10:17:40;;;;;;;6.30;3.37;;;;;;;16.97;27.51;98156.37;1635395;88;21023;-73
2022/04/14 10:20:09;;;;;;;5.67;3.20;;;;;;;17.13;28.70;98148.43;1608914;89;21446;-73
2022/04/14 10:22:41;;;;;;;6.67;3.52;;;;;;;17.26;26.48;98149.08;1614545;89;21429;-73
2022/04/14 10:25:09;;;;;;;6.85;3.65;;;;;;;17.29;26.65;98144.91;1614621;89;21049;-73
2022/04/14 10:27:39;;;;;;;5.58;3.08;;;;;;;17.43;27.23;98134.77;1614529;89;21048;-73
2022/04/14 10:30:07;;;;;;;5.17;3.42;;;;;;;17.55;26.04;98135.89;1614577;89;21063;-73
2022/04/14 10:32:35;;;;;;;4.37;3.08;;;;;;;17.69;26.12;98132.45;1605603;89;22268;-73
2022/04/14 10:35:08;;;;;;;4.05;2.80;;;;;;;17.86;25.74;98135.98;1627367;88;21007;-73
2022/04/14 10:37:49;;;;;;;5.12;3.00;;;;;;;18.07;26.12;98132.08;1600604;89;21098;-73
2022/04/14 10:40:16;;;;;;;7.67;3.25;;;;;;;18.33;25.43;98130.17;1627453;88;21523;-73
2022/04/14 10:42:50;;;;;;;5.40;3.62;;;;;;;18.64;24.92;98126.97;1600816;89;21097;-73
2022/04/14 10:45:22;;;;;;;6.95;3.20;;;;;;;19.13;25.51;98125.81;1603702;88;21078;-73
2022/04/14 10:47:54;;;;;;;10.13;3.80;;;;;;;19.38;22.87;98122.91;1631332;87;21442;-73
2022/04/14 10:50:34;;;;;;;5.92;3.58;;;;;;;19.99;22.75;98112.79;1640938;87;21005;-73
2022/04/14 10:53:20;;;;;;;6.53;3.22;;;;;;;20.53;24.14;98115.02;1640846;87;21478;-73
2022/04/14 10:55:50;;;;;;;7.05;3.35;;;;;;;20.83;21.42;98120.59;1633610;87;21465;-73
2022/04/14 10:58:41;;;;;;;8.33;3.30;;;;;;;21.05;22.87;98119.97;1614652;87;21048;-73
2022/04/14 11:01:12;;;;;;;5.15;3.60;;;;;;;21.41;22.64;98116.58;1614852;87;21072;-73
2022/04/14 11:03:52;;;;;;;14.50;7.95;;;;;;;21.84;22.67;98118.86;1621054;88;21516;-73
2022/04/14 11:06:47;;;;;;;6.60;3.87;;;;;;;22.05;21.64;98113.33;1668830;85;21027;-73
2022/04/14 11:09:54;;;;;;;4.40;2.95;;;;;;;22.34;20.94;98114.31;1628959;86;21055;-73
2022/04/14 11:12:40;;;;;;;4.83;3.08;;;;;;;22.57;20.24;98111.69;1662480;86;21520;-72
2022/04/14 11:15:09;;;;;;;9.45;2.95;;;;;;;22.90;20.65;98108.69;1684318;85;21030;-72
2022/04/14 11:17:48;;;;;;;4.08;2.60;;;;;;;23.34;18.17;98111.58;1657097;86;21532;-73
2022/04/14 11:20:38;;;;;;;5.47;3.00;;;;;;;23.36;18.75;98106.02;1655910;86;21238;-72
2022/04/14 11:23:24;;;;;;;4.83;2.50;;;;;;;22.91;15.07;98106.34;1635930;88;21008;-73
2022/04/14 11:26:07;;;;;;;9.08;2.98;;;;;;;23.03;18.52;98101.81;1661128;85;21082;-73
2022/04/14 11:28:38;;;;;;;3.30;2.70;;;;;;;23.28;18.09;98098.02;1662812;85;21552;-74
2022/04/14 11:31:22;;;;;;;2.75;2.30;;;;;;;23.71;18.49;98096.37;1684339;85;21690;-73
2022/04/14 11:33:53;;;;;;;;;;;;;;;23.83;17.94;98094.51;1665349;86;21008;-73
2022/04/14 11:36:43;;;;;;;3.22;2.58;;;;;;;24.01;16.58;98089.91;1653184;86;20095;-72
2022/04/14 11:39:25;;;;;;;6.50;2.70;;;;;;;23.83;15.96;98088.25;1656609;87;21125;-73
2022/04/14 11:41:55;;;;;;;6.33;2.42;;;;;;;23.98;16.50;98081.55;1635922;88;21047;-73
2022/04/14 11:44:32;;;;;;;3.83;2.65;;;;;;;24.16;16.95;98082.88;1635922;88;21063;-73